createdAt,value
2019-05-20T00:02:54.834Z,15.70
2019-05-20T00:05:51.376Z,15.70
2019-05-20T00:08:47.648Z,15.80
2019-05-20T00:11:44.049Z,15.80
2019-05-20T00:14:39.791Z,15.80
2019-05-20T00:17:36.102Z,15.90
2019-05-20T00:20:31.649Z,15.90
2019-05-20T00:23:27.936Z,15.90
2019-05-20T00:26:24.209Z,15.80
2019-05-20T00:29:20.045Z,15.80
2019-05-20T00:32:15.787Z,15.80
2019-05-20T00:35:12.675Z,15.80
2019-05-20T00:38:09.058Z,15.80
2019-05-20T00:41:05.588Z,15.70
2019-05-20T00:44:02.138Z,15.80
2019-05-20T00:46:57.976Z,15.80
2019-05-20T00:49:53.616Z,15.80
2019-05-20T00:52:50.187Z,15.80
2019-05-20T00:55:46.742Z,15.70
2019-05-20T00:58:42.353Z,15.80
2019-05-20T01:01:38.971Z,15.80
2019-05-20T01:04:35.566Z,15.80
2019-05-20T01:07:31.951Z,15.80
2019-05-20T01:10:27.483Z,15.80
2019-05-20T01:13:24.430Z,15.80
2019-05-20T01:16:21.947Z,15.80
2019-05-20T01:19:17.498Z,15.70
2019-05-20T01:22:12.919Z,15.70
2019-05-20T01:25:09.525Z,15.60
2019-05-20T01:28:06.565Z,15.60
2019-05-20T01:31:02.963Z,15.60
2019-05-20T01:33:59.601Z,15.60
2019-05-20T01:36:56.183Z,15.70
2019-05-20T01:39:53.239Z,15.70
2019-05-20T01:42:50.158Z,15.70
2019-05-20T01:45:45.753Z,15.60
2019-05-20T01:48:42.058Z,15.60
2019-05-20T01:51:37.440Z,15.60
2019-05-20T01:54:32.768Z,15.60
2019-05-20T01:57:28.644Z,15.60
2019-05-20T02:00:25.539Z,15.50
2019-05-20T02:03:30.966Z,15.50
2019-05-20T02:06:19.750Z,15.60
2019-05-20T02:09:18.829Z,15.60
2019-05-20T02:12:15.537Z,15.60
2019-05-20T02:15:36.912Z,15.50
2019-05-20T02:18:32.635Z,15.50
2019-05-20T02:21:31.332Z,15.40
2019-05-20T02:24:29.552Z,15.30
2019-05-20T02:27:26.273Z,15.20
2019-05-20T02:30:22.235Z,15.20
2019-05-20T02:33:18.693Z,15.10
2019-05-20T02:36:15.646Z,15.00
2019-05-20T02:39:11.545Z,15.00
2019-05-20T02:42:08.456Z,14.90
2019-05-20T02:45:04.215Z,14.80
2019-05-20T02:48:01.474Z,14.70
2019-05-20T02:50:57.257Z,14.70
2019-05-20T02:53:53.244Z,14.70
2019-05-20T02:56:49.441Z,14.70
2019-05-20T02:59:45.498Z,14.70
2019-05-20T03:02:43.263Z,14.60
2019-05-20T03:05:40.298Z,14.60
2019-05-20T03:08:36.906Z,14.50
2019-05-20T03:11:32.920Z,14.40
2019-05-20T03:14:28.776Z,14.40
2019-05-20T03:17:25.832Z,14.30
2019-05-20T03:20:21.397Z,14.30
2019-05-20T03:23:17.373Z,14.30
2019-05-20T03:26:14.213Z,14.30
2019-05-20T03:29:09.728Z,14.30
2019-05-20T03:32:06.617Z,14.30
2019-05-20T03:35:04.193Z,14.40
2019-05-20T03:38:00.384Z,14.40
2019-05-20T03:40:56.579Z,14.40
2019-05-20T03:43:52.678Z,14.40
2019-05-20T03:46:48.377Z,14.40
2019-05-20T03:49:44.024Z,14.40
2019-05-20T03:52:40.615Z,14.30
2019-05-20T03:55:36.729Z,14.30
2019-05-20T03:58:33.486Z,14.40
2019-05-20T04:01:29.741Z,14.40
2019-05-20T04:04:25.994Z,14.50
2019-05-20T04:07:21.824Z,14.60
2019-05-20T04:10:17.938Z,14.70
2019-05-20T04:13:14.820Z,14.80
2019-05-20T04:16:10.280Z,14.80
2019-05-20T04:19:06.051Z,14.90
2019-05-20T04:22:02.489Z,14.90
2019-05-20T04:24:58.957Z,15.10
2019-05-20T04:27:55.129Z,15.20
2019-05-20T04:30:50.436Z,15.30
2019-05-20T04:33:46.892Z,15.50
2019-05-20T04:36:42.464Z,15.60
2019-05-20T04:39:38.878Z,15.70
2019-05-20T04:42:34.261Z,15.70
2019-05-20T04:45:30.737Z,15.70
2019-05-20T04:48:26.055Z,15.80
2019-05-20T04:51:24.901Z,15.80
2019-05-20T04:54:20.606Z,15.90
2019-05-20T04:57:17.095Z,16.10
2019-05-20T05:00:13.706Z,16.30
2019-05-20T05:03:09.377Z,16.40
2019-05-20T05:06:05.926Z,16.60
2019-05-20T05:09:02.861Z,16.60
2019-05-20T05:11:58.298Z,16.70
2019-05-20T05:14:54.817Z,16.80
2019-05-20T05:17:51.353Z,16.70
2019-05-20T05:20:47.750Z,16.80
2019-05-20T05:23:58.322Z,16.80
2019-05-20T05:26:42.324Z,16.80
2019-05-20T05:29:37.975Z,16.90
2019-05-20T05:32:41.324Z,16.80
2019-05-20T05:35:52.254Z,16.80
2019-05-20T05:38:36.530Z,16.80
2019-05-20T05:41:32.712Z,16.90
2019-05-20T05:44:29.148Z,17.10
2019-05-20T05:47:24.927Z,17.10
2019-05-20T05:50:20.714Z,17.20
2019-05-20T05:53:16.531Z,17.30
2019-05-20T05:56:12.235Z,17.40
2019-05-20T05:59:07.919Z,17.50
2019-05-20T06:02:04.375Z,17.70
2019-05-20T06:04:59.619Z,17.80
2019-05-20T06:07:56.200Z,18.00
2019-05-20T06:10:51.899Z,18.10
2019-05-20T06:13:48.174Z,18.00
2019-05-20T06:16:44.459Z,18.00
2019-05-20T06:19:40.069Z,18.00
2019-05-20T06:22:36.340Z,17.90
2019-05-20T06:25:32.699Z,17.90
2019-05-20T06:28:29.153Z,17.80
2019-05-20T06:31:25.987Z,17.90
2019-05-20T06:34:21.744Z,18.00
2019-05-20T06:37:19.933Z,18.10
2019-05-20T06:40:16.328Z,18.30
2019-05-20T06:43:13.963Z,18.60
2019-05-20T06:46:10.491Z,18.70
2019-05-20T06:49:07.441Z,18.80
2019-05-20T06:52:03.097Z,18.90
2019-05-20T06:55:01.655Z,19.30
2019-05-20T06:57:58.365Z,19.50
2019-05-20T07:00:55.822Z,19.40
2019-05-20T07:03:52.149Z,19.40
2019-05-20T07:06:48.582Z,19.40
2019-05-20T07:09:43.851Z,19.40
2019-05-20T07:12:41.904Z,19.50
2019-05-20T07:15:39.016Z,19.90
2019-05-20T07:18:34.565Z,20.40
2019-05-20T07:21:30.780Z,20.50
2019-05-20T07:24:27.109Z,20.60
2019-05-20T07:27:23.506Z,20.60
2019-05-20T07:30:20.392Z,20.80
2019-05-20T07:33:15.825Z,21.00
2019-05-20T07:36:12.311Z,21.00
2019-05-20T07:39:09.102Z,20.90
2019-05-20T07:42:05.489Z,20.80
2019-05-20T07:45:02.011Z,20.90
2019-05-20T07:47:59.032Z,21.00
2019-05-20T07:50:56.387Z,21.10
2019-05-20T07:53:52.745Z,21.00
2019-05-20T07:56:52.609Z,21.10
2019-05-20T07:59:52.057Z,21.20
2019-05-20T08:02:48.373Z,21.90
2019-05-20T08:05:45.200Z,22.20
2019-05-20T08:08:41.572Z,22.10
2019-05-20T08:11:37.023Z,22.00
2019-05-20T08:14:33.388Z,21.70
2019-05-20T08:17:29.038Z,21.40
2019-05-20T08:20:27.234Z,21.20
2019-05-20T08:23:23.895Z,21.00
2019-05-20T08:26:20.423Z,20.80
2019-05-20T08:29:16.704Z,20.70
2019-05-20T08:32:13.090Z,20.50
2019-05-20T08:35:09.586Z,20.40
2019-05-20T08:38:05.443Z,20.50
2019-05-20T08:41:01.348Z,20.60
2019-05-20T08:43:57.294Z,20.80
2019-05-20T08:46:53.577Z,20.80
2019-05-20T08:49:50.707Z,20.80
2019-05-20T08:52:47.122Z,20.70
2019-05-20T08:55:42.537Z,20.90
2019-05-20T08:58:38.831Z,20.90
2019-05-20T09:01:39.655Z,20.80
2019-05-20T09:04:35.970Z,20.70
2019-05-20T09:07:31.766Z,20.70
2019-05-20T09:10:32.625Z,20.60
2019-05-20T09:13:28.384Z,20.50
2019-05-20T09:16:24.774Z,20.40
2019-05-20T09:19:21.151Z,20.30
2019-05-20T09:22:17.709Z,20.40
2019-05-20T09:25:14.235Z,20.40
2019-05-20T09:28:11.063Z,20.50
2019-05-20T09:31:07.314Z,20.60
2019-05-20T09:34:04.117Z,20.70
2019-05-20T09:37:00.547Z,20.90
2019-05-20T09:39:57.015Z,20.90
2019-05-20T09:42:54.748Z,21.00
2019-05-20T09:46:05.581Z,21.10
2019-05-20T09:48:47.105Z,21.20
2019-05-20T09:51:44.810Z,21.20
2019-05-20T09:54:42.545Z,21.20
2019-05-20T09:57:38.792Z,21.20
2019-05-20T10:00:35.222Z,21.20
2019-05-20T10:03:30.573Z,21.10
2019-05-20T10:06:26.454Z,21.00
2019-05-20T10:09:22.745Z,21.00
2019-05-20T10:12:18.522Z,21.00
2019-05-20T10:15:14.803Z,21.00
2019-05-20T10:18:10.371Z,20.90
2019-05-20T10:21:07.030Z,20.90
2019-05-20T10:24:02.334Z,20.90
2019-05-20T10:26:59.387Z,20.80
2019-05-20T10:29:55.007Z,20.80
2019-05-20T10:32:51.754Z,20.60
2019-05-20T10:35:49.024Z,20.50
2019-05-20T10:38:57.304Z,20.40
2019-05-20T10:41:41.650Z,20.40
2019-05-20T10:44:41.775Z,20.40
2019-05-20T10:47:35.234Z,20.30
2019-05-20T10:50:32.155Z,20.30
2019-05-20T10:53:28.586Z,20.40
2019-05-20T10:56:24.705Z,20.20
2019-05-20T10:59:21.075Z,20.10
2019-05-20T11:02:17.632Z,20.00
2019-05-20T11:05:15.422Z,19.90
2019-05-20T11:08:13.444Z,19.80
2019-05-20T11:11:13.816Z,19.80
2019-05-20T11:14:07.681Z,19.80
2019-05-20T11:17:03.919Z,19.70
2019-05-20T11:20:01.425Z,19.80
2019-05-20T11:23:00.893Z,19.70
2019-05-20T11:25:54.457Z,19.70
2019-05-20T11:28:50.569Z,19.60
2019-05-20T11:31:46.101Z,19.50
2019-05-20T11:34:41.997Z,19.40
2019-05-20T11:37:38.523Z,19.30
2019-05-20T11:40:36.082Z,19.20
2019-05-20T11:43:31.559Z,19.30
2019-05-20T11:46:28.774Z,19.40
2019-05-20T11:49:28.996Z,19.50
2019-05-20T11:52:22.918Z,19.70
2019-05-20T11:55:18.335Z,19.80
2019-05-20T11:58:16.431Z,20.10
2019-05-20T12:01:12.778Z,20.40
2019-05-20T12:04:11.474Z,20.70
2019-05-20T12:07:08.723Z,20.60
2019-05-20T12:10:05.335Z,20.50
2019-05-20T12:13:00.735Z,20.30
2019-05-20T12:15:56.479Z,20.10
2019-05-20T12:18:52.082Z,19.90
2019-05-20T12:21:48.623Z,19.80
2019-05-20T12:24:44.150Z,19.50
2019-05-20T12:27:40.898Z,19.50
2019-05-20T12:30:37.805Z,19.50
2019-05-20T12:33:34.595Z,19.80
2019-05-20T12:36:30.210Z,19.90
2019-05-20T12:39:26.758Z,19.90
2019-05-20T12:42:22.992Z,19.90
2019-05-20T12:45:19.608Z,19.70
2019-05-20T12:48:16.010Z,19.80
2019-05-20T12:51:14.470Z,19.90
2019-05-20T12:54:08.676Z,19.90
2019-05-20T12:57:05.106Z,19.80
2019-05-20T13:00:01.527Z,19.60
2019-05-20T13:02:59.255Z,19.50
2019-05-20T13:05:55.210Z,19.30
2019-05-20T13:08:50.905Z,19.40
2019-05-20T13:11:47.251Z,19.40
2019-05-20T13:14:43.408Z,19.50
2019-05-20T13:17:44.289Z,19.40
2019-05-20T13:20:37.327Z,19.30
2019-05-20T13:23:33.026Z,19.40
2019-05-20T13:26:29.591Z,19.40
2019-05-20T13:29:25.117Z,19.40
2019-05-20T13:32:21.588Z,19.30
2019-05-20T13:35:17.161Z,19.10
2019-05-20T13:38:16.649Z,18.90
2019-05-20T13:41:13.282Z,18.80
2019-05-20T13:44:08.805Z,18.90
2019-05-20T13:47:05.527Z,18.90
2019-05-20T13:50:03.185Z,18.90
2019-05-20T13:52:59.010Z,18.90
2019-05-20T13:55:56.453Z,19.00
2019-05-20T13:58:53.260Z,19.20
2019-05-20T14:01:50.305Z,19.30
2019-05-20T14:04:46.060Z,19.30
2019-05-20T14:07:42.490Z,19.20
2019-05-20T14:10:38.048Z,19.20
2019-05-20T14:13:34.205Z,19.40
2019-05-20T14:16:30.576Z,19.20
2019-05-20T14:19:27.044Z,18.60
2019-05-20T14:22:23.737Z,17.80
2019-05-20T14:25:20.117Z,17.20
2019-05-20T14:28:16.502Z,16.70
2019-05-20T14:31:15.084Z,16.30
2019-05-20T14:34:11.860Z,16.10
2019-05-20T14:37:07.143Z,15.80
2019-05-20T14:40:03.812Z,15.80
2019-05-20T14:42:59.974Z,15.70
2019-05-20T14:45:56.367Z,15.70
2019-05-20T14:48:52.904Z,15.70
2019-05-20T14:51:48.333Z,15.70
2019-05-20T14:54:44.364Z,15.60
2019-05-20T14:57:40.744Z,15.60
2019-05-20T15:00:37.064Z,15.60
2019-05-20T15:03:32.873Z,15.50
2019-05-20T15:06:31.353Z,15.40
2019-05-20T15:09:27.728Z,15.50
2019-05-20T15:12:23.033Z,15.40
2019-05-20T15:15:19.338Z,15.50
2019-05-20T15:18:14.647Z,15.40
2019-05-20T15:21:14.042Z,15.40
2019-05-20T15:24:08.983Z,15.40
2019-05-20T15:27:05.052Z,15.40
2019-05-20T15:30:00.364Z,15.50
2019-05-20T15:32:56.393Z,15.50
2019-05-20T15:35:52.249Z,15.60
2019-05-20T15:38:48.768Z,15.70
2019-05-20T15:41:45.738Z,15.90
2019-05-20T15:44:44.903Z,15.90
2019-05-20T15:47:40.770Z,16.00
2019-05-20T15:50:36.748Z,16.10
2019-05-20T15:53:36.439Z,16.00
2019-05-20T15:56:37.344Z,16.10
2019-05-20T15:59:45.639Z,16.20
2019-05-20T16:02:31.197Z,16.30
2019-05-20T16:05:28.010Z,16.40
2019-05-20T16:08:24.708Z,16.50
2019-05-20T16:11:21.578Z,16.60
2019-05-20T16:14:18.216Z,16.50
2019-05-20T16:17:15.010Z,16.50
2019-05-20T16:20:11.027Z,16.50
2019-05-20T16:23:12.213Z,16.50
2019-05-20T16:26:09.774Z,16.40
2019-05-20T16:29:07.254Z,16.40
2019-05-20T16:32:03.628Z,16.40
2019-05-20T16:35:00.070Z,16.40
2019-05-20T16:37:55.559Z,16.30
2019-05-20T16:40:51.594Z,16.30
2019-05-20T16:43:47.382Z,16.30
2019-05-20T16:46:43.541Z,16.30
2019-05-20T16:49:43.139Z,16.20
2019-05-20T16:52:42.870Z,16.20
2019-05-20T16:55:39.636Z,16.20
2019-05-20T16:58:36.059Z,16.10
2019-05-20T17:01:44.269Z,16.10
2019-05-20T17:04:28.748Z,16.00
2019-05-20T17:07:25.272Z,16.00
2019-05-20T17:10:21.367Z,16.00
2019-05-20T17:13:17.918Z,16.00
2019-05-20T17:16:13.646Z,16.00
2019-05-20T17:19:10.308Z,15.90
2019-05-20T17:22:09.711Z,15.90
2019-05-20T17:25:06.253Z,16.00
2019-05-20T17:28:02.862Z,16.00
2019-05-20T17:31:00.911Z,15.90
2019-05-20T17:33:57.591Z,15.90
2019-05-20T17:36:54.031Z,15.90
2019-05-20T17:39:49.885Z,15.90
2019-05-20T17:42:47.209Z,15.90
2019-05-20T17:45:43.798Z,16.00
2019-05-20T17:48:39.681Z,16.00
2019-05-20T17:51:35.406Z,16.00
2019-05-20T17:54:31.127Z,16.00
2019-05-20T17:57:27.483Z,16.00
2019-05-20T18:00:23.685Z,16.00
2019-05-20T18:03:20.180Z,16.00
2019-05-20T18:06:19.733Z,15.90
2019-05-20T18:09:19.203Z,15.90
2019-05-20T18:12:16.856Z,15.90
2019-05-20T18:15:13.218Z,15.90
2019-05-20T18:18:09.742Z,15.90
2019-05-20T18:21:05.460Z,15.80
2019-05-20T18:24:01.544Z,15.80
2019-05-20T18:26:58.416Z,15.70
2019-05-20T18:29:55.049Z,15.70
2019-05-20T18:32:51.510Z,15.60
2019-05-20T18:35:47.996Z,15.50
2019-05-20T18:38:43.385Z,15.50
2019-05-20T18:41:39.361Z,15.50
2019-05-20T18:44:35.929Z,15.50
2019-05-20T18:47:32.971Z,15.40
2019-05-20T18:50:29.852Z,15.40
2019-05-20T18:53:25.571Z,15.30
2019-05-20T18:56:21.718Z,15.30
2019-05-20T18:59:18.570Z,15.20
2019-05-20T19:02:15.071Z,15.10
2019-05-20T19:05:11.098Z,15.00
2019-05-20T19:08:09.607Z,14.90
2019-05-20T19:11:05.668Z,14.80
2019-05-20T19:14:02.784Z,14.70
2019-05-20T19:16:59.540Z,14.70
2019-05-20T19:19:58.899Z,14.60
2019-05-20T19:22:55.123Z,14.60
2019-05-20T19:25:53.443Z,14.50
2019-05-20T19:28:55.156Z,14.40
2019-05-20T19:32:01.919Z,14.40
2019-05-20T19:34:58.527Z,14.30
2019-05-20T19:37:51.407Z,14.30
2019-05-20T19:40:47.362Z,14.20
2019-05-20T19:43:45.603Z,14.10
2019-05-20T19:46:41.648Z,14.20
2019-05-20T19:49:37.953Z,14.10
2019-05-20T19:52:37.064Z,14.10
2019-05-20T19:55:33.001Z,14.00
2019-05-20T19:58:29.438Z,14.00
2019-05-20T20:01:25.087Z,14.00
2019-05-20T20:04:21.038Z,13.90
2019-05-20T20:07:19.332Z,13.90
2019-05-20T20:10:16.748Z,13.80
2019-05-20T20:13:13.381Z,13.80
2019-05-20T20:16:09.825Z,13.70
2019-05-20T20:19:06.088Z,13.70
2019-05-20T20:22:02.282Z,13.70
2019-05-20T20:24:58.204Z,13.70
2019-05-20T20:27:54.135Z,13.80
2019-05-20T20:30:50.084Z,13.80
2019-05-20T20:33:46.702Z,13.80
2019-05-20T20:36:43.035Z,13.80
2019-05-20T20:39:39.235Z,13.70
2019-05-20T20:42:35.373Z,13.70
2019-05-20T20:45:31.351Z,13.60
2019-05-20T20:48:27.779Z,13.60
2019-05-20T20:51:24.561Z,13.40
2019-05-20T20:54:21.544Z,13.40
2019-05-20T20:57:18.593Z,13.30
2019-05-20T21:00:15.457Z,13.30
2019-05-20T21:03:12.565Z,13.20
2019-05-20T21:06:09.392Z,13.20
2019-05-20T21:09:06.087Z,13.10
2019-05-20T21:12:02.564Z,13.10
2019-05-20T21:14:59.489Z,13.10
2019-05-20T21:17:55.901Z,13.10
2019-05-20T21:20:51.863Z,13.10
2019-05-20T21:23:50.282Z,13.10
2019-05-20T21:26:50.428Z,13.10
2019-05-20T21:29:47.458Z,13.10
2019-05-20T21:32:43.139Z,13.00
2019-05-20T21:35:39.868Z,13.00
2019-05-20T21:38:36.584Z,13.00
2019-05-20T21:41:33.314Z,12.90
2019-05-20T21:44:31.704Z,12.90
2019-05-20T21:47:29.227Z,12.90
2019-05-20T21:50:28.119Z,12.80
2019-05-20T21:53:24.898Z,12.80
2019-05-20T21:56:21.674Z,12.80
2019-05-20T21:59:18.606Z,12.80
2019-05-20T22:02:14.068Z,12.70
2019-05-20T22:05:10.338Z,12.70
2019-05-20T22:08:07.208Z,12.70
2019-05-20T22:11:06.387Z,12.50
2019-05-20T22:14:03.086Z,12.50
2019-05-20T22:17:00.490Z,12.50
2019-05-20T22:19:56.802Z,12.50
2019-05-20T22:23:10.560Z,12.40
2019-05-20T22:26:06.324Z,12.40
2019-05-20T22:29:02.798Z,12.30
2019-05-20T22:31:58.843Z,12.40
2019-05-20T22:34:54.949Z,12.40
2019-05-20T22:37:51.021Z,12.40
2019-05-20T22:40:47.304Z,12.40
2019-05-20T22:43:44.071Z,12.40
2019-05-20T22:46:43.034Z,12.40
2019-05-20T22:49:40.306Z,12.40
2019-05-20T22:52:37.367Z,12.40
2019-05-20T22:55:34.316Z,12.40
2019-05-20T22:58:30.455Z,12.30
2019-05-20T23:01:26.542Z,12.30
2019-05-20T23:04:23.083Z,12.20
2019-05-20T23:07:19.829Z,12.20
2019-05-20T23:10:16.990Z,12.20
2019-05-20T23:13:13.773Z,12.10
2019-05-20T23:16:10.471Z,12.10
2019-05-20T23:19:08.469Z,12.00
2019-05-20T23:22:06.031Z,12.00
2019-05-20T23:25:01.818Z,11.90
2019-05-20T23:27:58.634Z,11.90
2019-05-20T23:30:55.495Z,11.90
2019-05-20T23:33:51.679Z,11.90
2019-05-20T23:36:48.343Z,11.80
2019-05-20T23:39:44.839Z,11.70
2019-05-20T23:42:40.738Z,11.70
2019-05-20T23:45:37.728Z,11.70
2019-05-20T23:48:34.784Z,11.70
2019-05-20T23:51:31.601Z,11.70
2019-05-20T23:54:27.522Z,11.70
2019-05-20T23:57:23.684Z,11.80
